PWSweather.com
Personal Weather Stations
Station Observations
IHTIMAN1
Neighbourhood 1, IhtimanBG 2050

Neighbourhood 1IhtimanBG 2050

Lat: 42.436852, Lon: 23.817921

Elevation: 2066

Station Type: Oregon Scientific WMR968

http://ihtiman-meteo.com

High Low Average
Temperature 46.4°F8.0°F 44.1°F6.7°F 45.2°F7.3°F
Dew Point 46.1°F7.8°F 43.8°F6.6°F 45.0°F7.2°F
Winds 6.3 mph SE10.1 mph SE Calm Calm 2.2 mph 3.5 mph
Wind Gusts 10.9 mph17.5 mph -- 4.0 mph6.4 mph
Humidity 100% 99% 99%
Pressure 30.12 in1020.00 in 29.97 in1014.90 in -
Precipitation 0.05 in1.30 in - -
Hour Temp Dew Point Humidity Winds Wind Gusts Pressure Precip Precip Rate Daily Precip Total
12:00 AM 44.4°F6.9°C 44.2°F6.8°C 99% 2.3 mph SE3.7 kmh SE 5.8 mph9.3 kmh 30.12 in1020.0 mb - 0.00 in0.0 mm 0.00 in0.0 mm
12:10 AM 44.3°F6.8°C 44.1°F6.7°C 99% 5.1 mph SE8.2 kmh SE 10.1 mph16.3 kmh 30.12 in1020.0 mb - 0.00 in0.0 mm 0.00 in0.0 mm
12:20 AM 44.2°F6.8°C 44.0°F6.7°C 99% 2.4 mph SE3.9 kmh SE 5.4 mph8.7 kmh 30.09 in1019.0 mb - 0.00 in0.0 mm 0.00 in0.0 mm
12:30 AM 44.2°F6.8°C 44.0°F6.7°C 99% 5.9 mph SE9.5 kmh SE 8.0 mph12.9 kmh 30.09 in1019.0 mb - 0.00 in0.0 mm 0.00 in0.0 mm
12:40 AM 44.2°F6.8°C 44.0°F6.7°C 99% 4.3 mph SE6.9 kmh SE 4.9 mph7.9 kmh 30.12 in1020.0 mb - 0.00 in0.0 mm 0.00 in0.0 mm
12:50 AM 44.4°F6.9°C 44.2°F6.8°C 99% 1.1 mph SE1.8 kmh SE 8.3 mph13.4 kmh 30.12 in1020.0 mb - 0.00 in0.0 mm 0.00 in0.0 mm
01:00 AM 44.4°F6.9°C 44.2°F6.8°C 99% 2.3 mph SE3.7 kmh SE 4.0 mph6.4 kmh 30.12 in1020.0 mb - 0.00 in0.0 mm 0.00 in0.0 mm
01:10 AM 44.4°F6.9°C 44.2°F6.8°C 99% 2.7 mph SE4.3 kmh SE 4.5 mph7.2 kmh 30.09 in1019.0 mb - 0.00 in0.0 mm 0.00 in0.0 mm
01:20 AM 44.4°F6.9°C 44.2°F6.8°C 99% 2.7 mph SE4.3 kmh SE 4.5 mph7.2 kmh 30.09 in1019.0 mb - 0.00 in0.0 mm 0.00 in0.0 mm
01:30 AM 44.4°F6.9°C 44.2°F6.8°C 99% Calm Calm -- 30.09 in1019.0 mb - 0.00 in0.0 mm 0.00 in0.0 mm
01:40 AM 44.2°F6.8°C 44.0°F6.7°C 99% 1.6 mph SE2.6 kmh SE 4.5 mph7.2 kmh 30.09 in1019.0 mb - 0.00 in0.0 mm 0.00 in0.0 mm
01:50 AM 44.2°F6.8°C 44.0°F6.7°C 99% 0.6 mph SE1.0 kmh SE 4.9 mph7.9 kmh 30.09 in1019.0 mb - 0.00 in0.0 mm 0.00 in0.0 mm
02:00 AM 44.2°F6.8°C 44.0°F6.7°C 99% Calm Calm 4.9 mph7.9 kmh 30.09 in1019.0 mb - 0.00 in0.0 mm 0.00 in0.0 mm
02:10 AM 44.2°F6.8°C 44.0°F6.7°C 99% 5.7 mph SE9.2 kmh SE 5.8 mph9.3 kmh 30.09 in1019.0 mb - 0.00 in0.0 mm 0.00 in0.0 mm
02:20 AM 44.2°F6.8°C 44.0°F6.7°C 99% 3.2 mph SE5.1 kmh SE 4.9 mph7.9 kmh 30.09 in1019.0 mb - 0.00 in0.0 mm 0.00 in0.0 mm
02:30 AM 44.2°F6.8°C 44.0°F6.7°C 99% 1.2 mph ESE1.9 kmh ESE -- 30.09 in1019.0 mb - 0.00 in0.0 mm 0.00 in0.0 mm
02:40 AM 44.2°F6.8°C 44.0°F6.7°C 99% 4.9 mph SE7.9 kmh SE 6.3 mph10.1 kmh 30.09 in1019.0 mb - 0.00 in0.0 mm 0.00 in0.0 mm
02:50 AM 44.2°F6.8°C 44.0°F6.7°C 99% 3.9 mph SE6.3 kmh SE 7.6 mph12.2 kmh 30.09 in1019.0 mb - 0.00 in0.0 mm 0.00 in0.0 mm
03:00 AM 44.2°F6.8°C 44.0°F6.7°C 99% 4.3 mph ESE6.9 kmh ESE 6.3 mph10.1 kmh 30.09 in1019.0 mb - 0.00 in0.0 mm 0.00 in0.0 mm
03:10 AM 44.2°F6.8°C 44.0°F6.7°C 99% 3.1 mph SE5.0 kmh SE 6.3 mph10.1 kmh 30.09 in1019.0 mb - 0.00 in0.0 mm 0.00 in0.0 mm
03:20 AM 44.2°F6.8°C 44.0°F6.7°C 99% 3.8 mph SE6.1 kmh SE 4.0 mph6.4 kmh 30.06 in1017.9 mb - 0.00 in0.0 mm 0.00 in0.0 mm
03:30 AM 44.2°F6.8°C 44.0°F6.7°C 99% 3.8 mph SE6.1 kmh SE 5.8 mph9.3 kmh 30.06 in1017.9 mb - 0.00 in0.0 mm 0.00 in0.0 mm
03:40 AM 44.2°F6.8°C 44.0°F6.7°C 99% 2.5 mph SE4.0 kmh SE 3.6 mph5.8 kmh 30.06 in1017.9 mb - 0.00 in0.0 mm 0.00 in0.0 mm
03:50 AM 44.2°F6.8°C 44.0°F6.7°C 99% 2.0 mph ESE3.2 kmh ESE 5.4 mph8.7 kmh 30.06 in1017.9 mb - 0.00 in0.0 mm 0.00 in0.0 mm
04:00 AM 44.2°F6.8°C 44.0°F6.7°C 99% 3.2 mph SE5.1 kmh SE 5.4 mph8.7 kmh 30.06 in1017.9 mb - 0.00 in0.0 mm 0.00 in0.0 mm
04:10 AM 44.2°F6.8°C 44.0°F6.7°C 99% 3.2 mph SE5.1 kmh SE 4.0 mph6.4 kmh 30.06 in1017.9 mb - 0.00 in0.0 mm 0.00 in0.0 mm
04:20 AM 44.2°F6.8°C 44.0°F6.7°C 99% 3.0 mph SE4.8 kmh SE 5.4 mph8.7 kmh 30.06 in1017.9 mb - 0.00 in0.0 mm 0.00 in0.0 mm
04:30 AM 44.2°F6.8°C 44.0°F6.7°C 99% Calm Calm 3.6 mph5.8 kmh 30.06 in1017.9 mb - 0.00 in0.0 mm 0.00 in0.0 mm
04:40 AM 44.2°F6.8°C 44.0°F6.7°C 99% 4.9 mph SE7.9 kmh SE 8.0 mph12.9 kmh 30.06 in1017.9 mb - 0.00 in0.0 mm 0.00 in0.0 mm
04:50 AM 44.1°F6.7°C 43.8°F6.6°C 99% 0.9 mph SE1.4 kmh SE 2.7 mph4.3 kmh 30.06 in1017.9 mb - 0.00 in0.0 mm 0.00 in0.0 mm
05:00 AM 44.1°F6.7°C 43.8°F6.6°C 99% 4.2 mph SE6.8 kmh SE 6.3 mph10.1 kmh 30.06 in1017.9 mb - 0.00 in0.0 mm 0.00 in0.0 mm
05:10 AM 44.1°F6.7°C 43.8°F6.6°C 99% 1.4 mph SE2.3 kmh SE 4.9 mph7.9 kmh 30.06 in1017.9 mb - 0.00 in0.0 mm 0.00 in0.0 mm
05:20 AM 44.1°F6.7°C 43.8°F6.6°C 99% 4.3 mph SE6.9 kmh SE 7.6 mph12.2 kmh 30.06 in1017.9 mb - 0.00 in0.0 mm 0.00 in0.0 mm
05:30 AM 44.1°F6.7°C 43.8°F6.6°C 99% 4.5 mph SE7.2 kmh SE 6.3 mph10.1 kmh 30.06 in1017.9 mb - 0.00 in0.0 mm 0.00 in0.0 mm
05:40 AM 44.1°F6.7°C 43.8°F6.6°C 99% 3.9 mph E6.3 kmh E 6.3 mph10.1 kmh 30.06 in1017.9 mb - 0.00 in0.0 mm 0.00 in0.0 mm
05:50 AM 44.1°F6.7°C 43.8°F6.6°C 99% Calm Calm -- 30.06 in1017.9 mb - 0.00 in0.0 mm 0.00 in0.0 mm
06:00 AM 44.1°F6.7°C 43.8°F6.6°C 99% 3.4 mph ESE5.5 kmh ESE 3.6 mph5.8 kmh 30.06 in1017.9 mb - 0.00 in0.0 mm 0.00 in0.0 mm
06:10 AM 44.1°F6.7°C 43.8°F6.6°C 99% 4.5 mph SE7.2 kmh SE 6.3 mph10.1 kmh 30.06 in1017.9 mb - 0.00 in0.0 mm 0.00 in0.0 mm
06:20 AM 44.1°F6.7°C 43.8°F6.6°C 99% 2.2 mph SE3.5 kmh SE 6.3 mph10.1 kmh 30.06 in1017.9 mb - 0.00 in0.0 mm 0.00 in0.0 mm
06:30 AM 44.1°F6.7°C 43.8°F6.6°C 99% 0.4 mph SE0.6 kmh SE 2.7 mph4.3 kmh 30.06 in1017.9 mb - 0.00 in0.0 mm 0.00 in0.0 mm
06:40 AM 44.1°F6.7°C 43.8°F6.6°C 99% Calm Calm 2.7 mph4.3 kmh 30.06 in1017.9 mb - 0.00 in0.0 mm 0.00 in0.0 mm
06:50 AM 44.1°F6.7°C 43.8°F6.6°C 99% 0.8 mph SE1.3 kmh SE 4.9 mph7.9 kmh 30.06 in1017.9 mb - 0.00 in0.0 mm 0.00 in0.0 mm
07:00 AM 44.1°F6.7°C 43.8°F6.6°C 99% 3.4 mph SE5.5 kmh SE 5.8 mph9.3 kmh 30.06 in1017.9 mb - 0.00 in0.0 mm 0.00 in0.0 mm
07:10 AM 44.1°F6.7°C 43.8°F6.6°C 99% 2.8 mph ESE4.5 kmh ESE 5.4 mph8.7 kmh 30.06 in1017.9 mb - 0.00 in0.0 mm 0.00 in0.0 mm
07:20 AM 44.1°F6.7°C 43.8°F6.6°C 99% 2.8 mph SE4.5 kmh SE 5.8 mph9.3 kmh 30.09 in1019.0 mb - 0.00 in0.0 mm 0.00 in0.0 mm
07:30 AM 44.1°F6.7°C 43.8°F6.6°C 99% Calm Calm 3.1 mph5.0 kmh 30.09 in1019.0 mb - 0.00 in0.0 mm 0.00 in0.0 mm
07:40 AM 44.1°F6.7°C 43.8°F6.6°C 99% 0.5 mph SE0.8 kmh SE 4.9 mph7.9 kmh 30.09 in1019.0 mb - 0.00 in0.0 mm 0.00 in0.0 mm
07:50 AM 44.2°F6.8°C 44.0°F6.7°C 99% 4.2 mph SE6.8 kmh SE 4.0 mph6.4 kmh 30.09 in1019.0 mb - 0.00 in0.0 mm 0.00 in0.0 mm
08:00 AM 44.2°F6.8°C 44.0°F6.7°C 99% 3.7 mph SE6.0 kmh SE 5.8 mph9.3 kmh 30.09 in1019.0 mb - 0.00 in0.0 mm 0.00 in0.0 mm
08:10 AM 44.2°F6.8°C 44.0°F6.7°C 99% 2.7 mph SE4.3 kmh SE 3.1 mph5.0 kmh 30.09 in1019.0 mb - 0.00 in0.0 mm 0.00 in0.0 mm
08:20 AM 44.4°F6.9°C 44.2°F6.8°C 99% 0.7 mph E1.1 kmh E -- 30.09 in1019.0 mb - 0.00 in0.0 mm 0.00 in0.0 mm
08:30 AM 44.6°F7.0°C 44.3°F6.8°C 99% 2.3 mph SE3.7 kmh SE 4.0 mph6.4 kmh 30.09 in1019.0 mb - 0.00 in0.0 mm 0.00 in0.0 mm
08:40 AM 44.8°F7.1°C 44.5°F6.9°C 99% 3.6 mph ESE5.8 kmh ESE 7.2 mph11.6 kmh 30.06 in1017.9 mb - 0.00 in0.0 mm 0.00 in0.0 mm
08:50 AM 45.0°F7.2°C 44.7°F7.1°C 99% 0.4 mph E0.6 kmh E -- 30.06 in1017.9 mb - 0.00 in0.0 mm 0.00 in0.0 mm
09:00 AM 45.1°F7.3°C 44.9°F7.2°C 99% Calm Calm 4.0 mph6.4 kmh 30.06 in1017.9 mb - 0.00 in0.0 mm 0.00 in0.0 mm
09:10 AM 45.1°F7.3°C 44.9°F7.2°C 99% 2.0 mph ESE3.2 kmh ESE -- 30.06 in1017.9 mb - 0.00 in0.0 mm 0.00 in0.0 mm
09:20 AM 45.1°F7.3°C 44.9°F7.2°C 99% 3.8 mph ESE6.1 kmh ESE 5.8 mph9.3 kmh 30.06 in1017.9 mb - 0.00 in0.0 mm 0.00 in0.0 mm
09:30 AM 45.1°F7.3°C 44.9°F7.2°C 99% 3.9 mph E6.3 kmh E 4.9 mph7.9 kmh 30.06 in1017.9 mb - 0.00 in0.0 mm 0.00 in0.0 mm
09:40 AM 45.1°F7.3°C 44.9°F7.2°C 99% 5.2 mph SE8.4 kmh SE 7.6 mph12.2 kmh 30.06 in1017.9 mb - 0.00 in0.0 mm 0.00 in0.0 mm
09:50 AM 45.1°F7.3°C 44.9°F7.2°C 99% 3.4 mph SE5.5 kmh SE 4.0 mph6.4 kmh 30.06 in1017.9 mb - 0.00 in0.0 mm 0.00 in0.0 mm
10:00 AM 45.3°F7.4°C 45.1°F7.3°C 99% Calm Calm 2.7 mph4.3 kmh 30.06 in1017.9 mb - 0.00 in0.0 mm 0.00 in0.0 mm
10:10 AM 45.3°F7.4°C 45.1°F7.3°C 99% 1.9 mph SE3.1 kmh SE 6.3 mph10.1 kmh 30.06 in1017.9 mb - 0.00 in0.0 mm 0.00 in0.0 mm
10:20 AM 45.3°F7.4°C 45.1°F7.3°C 99% 3.5 mph E5.6 kmh E 5.8 mph9.3 kmh 30.06 in1017.9 mb - 0.00 in0.0 mm 0.00 in0.0 mm
10:30 AM 45.5°F7.5°C 45.2°F7.3°C 99% 1.0 mph ESE1.6 kmh ESE 4.9 mph7.9 kmh 30.06 in1017.9 mb - 0.00 in0.0 mm 0.00 in0.0 mm
10:40 AM 45.3°F7.4°C 45.1°F7.3°C 99% 1.4 mph SE2.3 kmh SE 4.0 mph6.4 kmh 30.06 in1017.9 mb - 0.00 in0.0 mm 0.00 in0.0 mm
10:50 AM 45.5°F7.5°C 45.2°F7.3°C 99% 4.8 mph SE7.7 kmh SE 6.3 mph10.1 kmh 30.03 in1016.9 mb - 0.00 in0.0 mm 0.00 in0.0 mm
11:00 AM 45.5°F7.5°C 45.2°F7.3°C 99% 2.4 mph SE3.9 kmh SE 3.6 mph5.8 kmh 30.03 in1016.9 mb - 0.00 in0.0 mm 0.00 in0.0 mm
11:10 AM 45.3°F7.4°C 45.1°F7.3°C 99% 4.1 mph SE6.6 kmh SE 7.6 mph12.2 kmh 30.06 in1017.9 mb - 0.00 in0.0 mm 0.00 in0.0 mm
11:20 AM 45.3°F7.4°C 45.1°F7.3°C 99% 3.4 mph SE5.5 kmh SE 6.3 mph10.1 kmh 30.06 in1017.9 mb - 0.05 in1.3 mm 0.05 in1.3 mm
11:30 AM 45.3°F7.4°C 45.1°F7.3°C 99% 3.9 mph SE6.3 kmh SE 5.8 mph9.3 kmh 30.06 in1017.9 mb - 0.00 in0.0 mm 0.05 in1.3 mm
11:40 AM 45.3°F7.4°C 45.1°F7.3°C 99% 3.8 mph SE6.1 kmh SE 5.8 mph9.3 kmh 30.06 in1017.9 mb - 0.00 in0.0 mm 0.05 in1.3 mm
11:50 AM 45.5°F7.5°C 45.2°F7.3°C 99% 2.7 mph SSE4.3 kmh SSE 3.6 mph5.8 kmh 30.03 in1016.9 mb - 0.00 in0.0 mm 0.05 in1.3 mm
12:00 PM 45.7°F7.6°C 45.4°F7.4°C 99% 0.1 mph SE0.2 kmh SE 4.0 mph6.4 kmh 30.03 in1016.9 mb - 0.00 in0.0 mm 0.05 in1.3 mm
12:10 PM 46.0°F7.8°C 46.0°F7.8°C 100% 3.0 mph SE4.8 kmh SE 5.4 mph8.7 kmh 30.03 in1016.9 mb - 0.00 in0.0 mm 0.05 in1.3 mm
12:20 PM 46.0°F7.8°C 45.8°F7.7°C 99% 1.3 mph ESE2.1 kmh ESE -- 30.03 in1016.9 mb - 0.00 in0.0 mm 0.05 in1.3 mm
12:30 PM 45.9°F7.7°C 45.6°F7.6°C 99% 4.6 mph SE7.4 kmh SE 5.4 mph8.7 kmh 30.03 in1016.9 mb - 0.00 in0.0 mm 0.05 in1.3 mm
12:40 PM 46.0°F7.8°C 45.8°F7.7°C 99% Calm Calm -- 30.03 in1016.9 mb - 0.00 in0.0 mm 0.05 in1.3 mm
12:50 PM 46.0°F7.8°C 45.8°F7.7°C 99% 1.7 mph SE2.7 kmh SE 4.0 mph6.4 kmh 30.03 in1016.9 mb - 0.00 in0.0 mm 0.05 in1.3 mm
01:00 PM 46.0°F7.8°C 45.8°F7.7°C 99% 5.4 mph SE8.7 kmh SE 5.8 mph9.3 kmh 30.03 in1016.9 mb - 0.00 in0.0 mm 0.05 in1.3 mm
01:10 PM 46.2°F7.9°C 46.0°F7.8°C 99% 0.6 mph SE1.0 kmh SE 6.3 mph10.1 kmh 30.03 in1016.9 mb - 0.00 in0.0 mm 0.05 in1.3 mm
01:20 PM 46.1°F7.8°C 45.9°F7.7°C 99% 1.3 mph SE2.1 kmh SE 6.7 mph10.8 kmh 30.03 in1016.9 mb - 0.00 in0.0 mm 0.05 in1.3 mm
01:30 PM 46.2°F7.9°C 46.0°F7.8°C 99% 3.8 mph SE6.1 kmh SE 5.8 mph9.3 kmh 30.03 in1016.9 mb - 0.00 in0.0 mm 0.05 in1.3 mm
01:40 PM 46.2°F7.9°C 46.0°F7.8°C 99% 4.0 mph SE6.4 kmh SE 5.8 mph9.3 kmh 30.00 in1015.9 mb - 0.00 in0.0 mm 0.05 in1.3 mm
01:50 PM 46.2°F7.9°C 46.0°F7.8°C 99% 3.8 mph ESE6.1 kmh ESE 5.4 mph8.7 kmh 30.00 in1015.9 mb - 0.00 in0.0 mm 0.05 in1.3 mm
02:00 PM 46.4°F8.0°C 46.1°F7.8°C 99% 3.5 mph SE5.6 kmh SE 5.8 mph9.3 kmh 30.00 in1015.9 mb - 0.00 in0.0 mm 0.05 in1.3 mm
02:10 PM 46.2°F7.9°C 46.0°F7.8°C 99% 4.3 mph SE6.9 kmh SE 5.8 mph9.3 kmh 30.00 in1015.9 mb - 0.00 in0.0 mm 0.05 in1.3 mm
02:20 PM 46.2°F7.9°C 46.0°F7.8°C 99% 2.5 mph SE4.0 kmh SE 6.3 mph10.1 kmh 30.00 in1015.9 mb - 0.00 in0.0 mm 0.05 in1.3 mm
02:30 PM 46.2°F7.9°C 46.0°F7.8°C 99% 6.3 mph SE10.1 kmh SE 8.7 mph14.0 kmh 30.00 in1015.9 mb - 0.00 in0.0 mm 0.05 in1.3 mm
02:40 PM 46.2°F7.9°C 46.0°F7.8°C 99% 0.7 mph ESE1.1 kmh ESE 8.0 mph12.9 kmh 30.00 in1015.9 mb - 0.00 in0.0 mm 0.05 in1.3 mm
02:50 PM 46.2°F7.9°C 46.0°F7.8°C 99% Calm Calm -- 30.00 in1015.9 mb - 0.00 in0.0 mm 0.05 in1.3 mm
03:00 PM 46.4°F8.0°C 46.1°F7.8°C 99% 2.1 mph SE3.4 kmh SE 5.4 mph8.7 kmh 30.00 in1015.9 mb - 0.00 in0.0 mm 0.05 in1.3 mm
03:10 PM 46.2°F7.9°C 46.0°F7.8°C 99% 1.7 mph SE2.7 kmh SE 4.9 mph7.9 kmh 30.00 in1015.9 mb - 0.00 in0.0 mm 0.05 in1.3 mm
03:20 PM 46.2°F7.9°C 46.0°F7.8°C 99% 5.3 mph SE8.5 kmh SE 5.8 mph9.3 kmh 30.00 in1015.9 mb - 0.00 in0.0 mm 0.05 in1.3 mm
03:30 PM 46.0°F7.8°C 45.8°F7.7°C 99% 4.2 mph SE6.8 kmh SE 5.4 mph8.7 kmh 30.00 in1015.9 mb - 0.00 in0.0 mm 0.05 in1.3 mm
03:40 PM 46.0°F7.8°C 45.8°F7.7°C 99% 3.1 mph ESE5.0 kmh ESE 4.9 mph7.9 kmh 30.00 in1015.9 mb - 0.00 in0.0 mm 0.05 in1.3 mm
03:50 PM 46.0°F7.8°C 45.8°F7.7°C 99% 3.1 mph SE5.0 kmh SE 4.0 mph6.4 kmh 30.00 in1015.9 mb - 0.00 in0.0 mm 0.05 in1.3 mm
04:00 PM 46.0°F7.8°C 45.8°F7.7°C 99% 4.1 mph SE6.6 kmh SE 7.6 mph12.2 kmh 30.00 in1015.9 mb - 0.00 in0.0 mm 0.05 in1.3 mm
04:10 PM 46.0°F7.8°C 45.8°F7.7°C 99% 1.2 mph E1.9 kmh E 4.0 mph6.4 kmh 30.00 in1015.9 mb - 0.00 in0.0 mm 0.05 in1.3 mm
04:20 PM 46.0°F7.8°C 45.8°F7.7°C 99% 1.0 mph SE1.6 kmh SE 3.6 mph5.8 kmh 30.00 in1015.9 mb - 0.00 in0.0 mm 0.05 in1.3 mm
04:30 PM 45.9°F7.7°C 45.6°F7.6°C 99% 4.2 mph SE6.8 kmh SE 5.8 mph9.3 kmh 30.00 in1015.9 mb - 0.00 in0.0 mm 0.05 in1.3 mm
04:40 PM 45.9°F7.7°C 45.6°F7.6°C 99% 5.2 mph SE8.4 kmh SE 6.3 mph10.1 kmh 30.00 in1015.9 mb - 0.00 in0.0 mm 0.05 in1.3 mm
04:50 PM 45.9°F7.7°C 45.6°F7.6°C 99% 2.7 mph ESE4.3 kmh ESE 3.6 mph5.8 kmh 30.00 in1015.9 mb - 0.00 in0.0 mm 0.05 in1.3 mm
05:00 PM 45.9°F7.7°C 45.6°F7.6°C 99% Calm Calm 3.6 mph5.8 kmh 30.00 in1015.9 mb - 0.00 in0.0 mm 0.05 in1.3 mm
05:10 PM 45.9°F7.7°C 45.6°F7.6°C 99% 1.6 mph SE2.6 kmh SE 4.0 mph6.4 kmh 30.00 in1015.9 mb - 0.00 in0.0 mm 0.05 in1.3 mm
05:20 PM 45.9°F7.7°C 45.6°F7.6°C 99% 3.6 mph SE5.8 kmh SE 7.6 mph12.2 kmh 29.97 in1014.9 mb - 0.00 in0.0 mm 0.05 in1.3 mm
05:30 PM 45.9°F7.7°C 45.6°F7.6°C 99% 2.1 mph SE3.4 kmh SE 2.7 mph4.3 kmh 29.97 in1014.9 mb - 0.00 in0.0 mm 0.05 in1.3 mm
05:40 PM 45.9°F7.7°C 45.6°F7.6°C 99% Calm Calm 3.1 mph5.0 kmh 29.97 in1014.9 mb - 0.00 in0.0 mm 0.05 in1.3 mm
05:50 PM 45.9°F7.7°C 45.6°F7.6°C 99% Calm Calm -- 30.00 in1015.9 mb - 0.00 in0.0 mm 0.05 in1.3 mm
06:00 PM 45.9°F7.7°C 45.6°F7.6°C 99% Calm Calm -- 30.00 in1015.9 mb - 0.00 in0.0 mm 0.05 in1.3 mm
06:10 PM 45.9°F7.7°C 45.6°F7.6°C 99% Calm Calm -- 30.00 in1015.9 mb - 0.00 in0.0 mm 0.05 in1.3 mm
06:20 PM 45.9°F7.7°C 45.6°F7.6°C 99% Calm Calm -- 30.00 in1015.9 mb - 0.00 in0.0 mm 0.05 in1.3 mm
06:30 PM 45.9°F7.7°C 45.6°F7.6°C 99% Calm Calm -- 30.00 in1015.9 mb - 0.00 in0.0 mm 0.05 in1.3 mm
06:40 PM 45.9°F7.7°C 45.6°F7.6°C 99% Calm Calm -- 30.00 in1015.9 mb - 0.00 in0.0 mm 0.05 in1.3 mm
06:50 PM 45.9°F7.7°C 45.6°F7.6°C 99% Calm Calm 2.2 mph3.5 kmh 30.00 in1015.9 mb - 0.00 in0.0 mm 0.05 in1.3 mm
07:00 PM 45.9°F7.7°C 45.6°F7.6°C 99% Calm Calm 2.2 mph3.5 kmh 30.00 in1015.9 mb - 0.00 in0.0 mm 0.05 in1.3 mm
07:10 PM 45.9°F7.7°C 45.6°F7.6°C 99% 1.0 mph SSE1.6 kmh SSE 3.1 mph5.0 kmh 30.00 in1015.9 mb - 0.00 in0.0 mm 0.05 in1.3 mm
07:20 PM 45.9°F7.7°C 45.6°F7.6°C 99% Calm Calm -- 30.00 in1015.9 mb - 0.00 in0.0 mm 0.05 in1.3 mm
07:30 PM 45.9°F7.7°C 45.6°F7.6°C 99% Calm Calm -- 30.00 in1015.9 mb - 0.00 in0.0 mm 0.05 in1.3 mm
07:40 PM 45.9°F7.7°C 45.6°F7.6°C 99% Calm Calm -- 30.00 in1015.9 mb - 0.00 in0.0 mm 0.05 in1.3 mm
07:50 PM 45.9°F7.7°C 45.6°F7.6°C 99% Calm Calm -- 30.00 in1015.9 mb - 0.00 in0.0 mm 0.05 in1.3 mm
08:00 PM 45.9°F7.7°C 45.6°F7.6°C 99% Calm Calm -- 30.00 in1015.9 mb - 0.00 in0.0 mm 0.05 in1.3 mm
08:10 PM 45.9°F7.7°C 45.6°F7.6°C 99% Calm Calm -- 30.00 in1015.9 mb - 0.00 in0.0 mm 0.05 in1.3 mm
08:20 PM 45.9°F7.7°C 45.6°F7.6°C 99% Calm Calm -- 30.03 in1016.9 mb - 0.00 in0.0 mm 0.05 in1.3 mm
08:30 PM 45.9°F7.7°C 45.6°F7.6°C 99% Calm Calm -- 30.03 in1016.9 mb - 0.00 in0.0 mm 0.05 in1.3 mm
08:40 PM 45.9°F7.7°C 45.6°F7.6°C 99% Calm Calm -- 30.03 in1016.9 mb - 0.00 in0.0 mm 0.05 in1.3 mm
08:50 PM 45.9°F7.7°C 45.6°F7.6°C 99% Calm Calm -- 30.00 in1015.9 mb - 0.00 in0.0 mm 0.05 in1.3 mm
09:00 PM 45.9°F7.7°C 45.6°F7.6°C 99% Calm Calm -- 30.00 in1015.9 mb - 0.00 in0.0 mm 0.05 in1.3 mm
09:10 PM 45.9°F7.7°C 45.6°F7.6°C 99% Calm Calm -- 30.00 in1015.9 mb - 0.00 in0.0 mm 0.05 in1.3 mm
09:20 PM 45.9°F7.7°C 45.6°F7.6°C 99% Calm Calm -- 30.00 in1015.9 mb - 0.00 in0.0 mm 0.05 in1.3 mm
09:30 PM 46.0°F7.8°C 45.8°F7.7°C 99% Calm Calm -- 30.00 in1015.9 mb - 0.00 in0.0 mm 0.05 in1.3 mm
09:40 PM 46.0°F7.8°C 45.8°F7.7°C 99% Calm Calm -- 30.00 in1015.9 mb - 0.00 in0.0 mm 0.05 in1.3 mm
09:50 PM 46.0°F7.8°C 45.8°F7.7°C 99% Calm Calm -- 30.00 in1015.9 mb - 0.00 in0.0 mm 0.05 in1.3 mm
10:00 PM 46.0°F7.8°C 45.8°F7.7°C 99% Calm Calm 2.7 mph4.3 kmh 30.00 in1015.9 mb - 0.00 in0.0 mm 0.05 in1.3 mm
10:10 PM 46.0°F7.8°C 45.8°F7.7°C 99% Calm Calm -- 30.03 in1016.9 mb - 0.00 in0.0 mm 0.05 in1.3 mm
10:20 PM 45.9°F7.7°C 45.6°F7.6°C 99% Calm Calm -- 30.00 in1015.9 mb - 0.00 in0.0 mm 0.05 in1.3 mm
10:30 PM 45.9°F7.7°C 45.7°F7.6°C 99% Calm Calm -- 30.00 in1015.9 mb - 0.00 in0.0 mm 0.05 in1.3 mm
10:40 PM 46.0°F7.8°C 45.8°F7.7°C 99% Calm Calm 2.7 mph4.3 kmh 30.00 in1015.9 mb - 0.00 in0.0 mm 0.05 in1.3 mm
10:50 PM 46.0°F7.8°C 45.8°F7.7°C 99% 5.6 mph SE9.0 kmh SE 10.9 mph17.5 kmh 30.00 in1015.9 mb - 0.00 in0.0 mm 0.05 in1.3 mm
11:00 PM 46.0°F7.8°C 45.8°F7.7°C 99% 4.3 mph SE6.9 kmh SE 8.3 mph13.4 kmh 30.00 in1015.9 mb - 0.00 in0.0 mm 0.05 in1.3 mm
11:10 PM 46.0°F7.8°C 45.8°F7.7°C 99% 5.7 mph ESE9.2 kmh ESE 8.3 mph13.4 kmh 30.00 in1015.9 mb - 0.00 in0.0 mm 0.05 in1.3 mm
11:20 PM 46.0°F7.8°C 45.8°F7.7°C 99% 4.1 mph SE6.6 kmh SE 4.9 mph7.9 kmh 30.00 in1015.9 mb - 0.00 in0.0 mm 0.05 in1.3 mm
11:30 PM 46.0°F7.8°C 45.8°F7.7°C 99% 0.9 mph SE1.4 kmh SE 2.7 mph4.3 kmh 30.00 in1015.9 mb - 0.00 in0.0 mm 0.05 in1.3 mm
11:40 PM 46.2°F7.9°C 46.0°F7.8°C 99% 3.3 mph SE5.3 kmh SE 4.0 mph6.4 kmh 30.00 in1015.9 mb - 0.00 in0.0 mm 0.05 in1.3 mm
11:50 PM 46.0°F7.8°C 45.8°F7.7°C 99% 3.6 mph SE5.8 kmh SE 5.4 mph8.7 kmh 30.00 in1015.9 mb - 0.00 in0.0 mm 0.05 in1.3 mm